Time;durP1;ratioP1;P1;durP2;ratioP2;P2;SDS_P1;SDS_P2;PMS_P1;PMS_P2;Temp;Humidity;BMP_temperature;BMP_pressure;BME280_temperature;BME280_humidity;BME280_pressure;Samples;Min_cycle;Max_cycle;Signal;HPM_P1;HPM_P2
2021/10/04 00:00:06;;;;;;;2.00;1.33;;;;;;;;;;4972575;28;20042;-66
2021/10/04 00:02:33;;;;;;;2.33;1.25;;;;;;;;;;4971881;28;20050;-66
2021/10/04 00:05:05;;;;;;;2.15;1.20;;;;;;;;;;4953621;29;20055;-65
2021/10/04 00:07:32;;;;;;;2.20;1.33;;;;;;;;;;4960116;28;20410;-64
2021/10/04 00:09:58;;;;;;;1.75;1.42;;;;;;;;;;4972712;28;20096;-65
2021/10/04 00:12:25;;;;;;;2.85;1.73;;;;;;;;;;4972313;28;20461;-66
2021/10/04 00:14:52;;;;;;;4.97;2.13;;;;;;;;;;4972789;28;20102;-66
2021/10/04 00:17:19;;;;;;;1.85;1.48;;;;;;;;;;4972481;28;20098;-64
2021/10/04 00:19:46;;;;;;;3.28;2.30;;;;;;;;;;4973092;28;20106;-66
2021/10/04 00:22:12;;;;;;;5.22;2.45;;;;;;;;;;4972222;28;20043;-66
2021/10/04 00:24:39;;;;;;;5.45;1.83;;;;;;;;;;4972444;28;20067;-66
2021/10/04 00:27:06;;;;;;;1.58;1.40;;;;;;;;;;4972330;28;20101;-66
2021/10/04 00:29:32;;;;;;;0.93;0.85;;;;;;;;;;4972648;28;20059;-66
2021/10/04 00:31:59;;;;;;;1.10;0.80;;;;;;;;;;4972234;28;20062;-66
2021/10/04 00:34:26;;;;;;;0.63;0.60;;;;;;;;;;4972314;28;20054;-67
2021/10/04 00:36:52;;;;;;;1.10;0.70;;;;;;;;;;4972557;28;20502;-66
2021/10/04 00:39:19;;;;;;;1.33;0.70;;;;;;;;;;4971567;28;20050;-66
2021/10/04 00:41:46;;;;;;;0.63;0.63;;;;;;;;;;4972152;28;20051;-66
2021/10/04 00:44:12;;;;;;;0.50;0.50;;;;;;;;;;4974637;28;20458;-67
2021/10/04 00:46:39;;;;;;;0.73;0.73;;;;;;;;;;4975851;28;20078;-66
2021/10/04 00:49:05;;;;;;;2.33;0.75;;;;;;;;;;4975669;28;20109;-66
2021/10/04 00:51:32;;;;;;;0.70;0.50;;;;;;;;;;4975497;28;20058;-66
2021/10/04 00:53:59;;;;;;;0.90;0.60;;;;;;;;;;4975646;28;20050;-67
2021/10/04 00:56:25;;;;;;;0.68;0.60;;;;;;;;;;4975616;28;20113;-66
2021/10/04 00:58:52;;;;;;;0.50;0.40;;;;;;;;;;4975645;28;20109;-66
2021/10/04 01:01:19;;;;;;;1.88;0.60;;;;;;;;;;4958240;28;20497;-67
2021/10/04 01:03:47;;;;;;;1.67;0.85;;;;;;;;;;4975286;28;20047;-66
2021/10/04 01:06:13;;;;;;;0.60;0.60;;;;;;;;;;4975511;28;20091;-67
2021/10/04 01:08:40;;;;;;;1.05;0.70;;;;;;;;;;4975508;28;20457;-67
2021/10/04 01:11:07;;;;;;;0.50;0.50;;;;;;;;;;4975254;28;20046;-67
2021/10/04 01:13:33;;;;;;;2.05;0.85;;;;;;;;;;4974094;28;20047;-66
2021/10/04 01:16:00;;;;;;;0.75;0.60;;;;;;;;;;4975575;28;20054;-65
2021/10/04 01:18:27;;;;;;;0.75;0.70;;;;;;;;;;4975522;28;20054;-67
2021/10/04 01:20:54;;;;;;;0.75;0.60;;;;;;;;;;4975227;28;20047;-67
2021/10/04 01:23:20;;;;;;;0.63;0.47;;;;;;;;;;4974043;28;20055;-66
2021/10/04 01:25:47;;;;;;;0.85;0.50;;;;;;;;;;4975301;28;20078;-67
2021/10/04 01:28:15;;;;;;;0.50;0.50;;;;;;;;;;4972240;28;20053;-67
2021/10/04 01:30:41;;;;;;;0.90;0.60;;;;;;;;;;4971387;28;20101;-66
2021/10/04 01:33:08;;;;;;;0.60;0.52;;;;;;;;;;4974709;28;20080;-67
2021/10/04 01:35:35;;;;;;;1.10;0.70;;;;;;;;;;4971573;28;20051;-66
2021/10/04 01:38:02;;;;;;;0.75;0.65;;;;;;;;;;4974544;28;20050;-67
2021/10/04 01:40:28;;;;;;;0.55;0.50;;;;;;;;;;4955845;28;20051;-66
2021/10/04 01:42:55;;;;;;;0.63;0.43;;;;;;;;;;4955184;29;20458;-66
2021/10/04 01:45:23;;;;;;;0.93;0.70;;;;;;;;;;4955197;28;20106;-67
2021/10/04 01:47:50;;;;;;;0.88;0.60;;;;;;;;;;4955311;29;20105;-67
2021/10/04 01:50:18;;;;;;;0.35;0.35;;;;;;;;;;4955207;28;20063;-65
2021/10/04 01:52:45;;;;;;;1.05;0.50;;;;;;;;;;4974366;28;20619;-66
2021/10/04 01:55:12;;;;;;;0.70;0.70;;;;;;;;;;4974291;28;20050;-66
2021/10/04 01:57:39;;;;;;;1.10;0.50;;;;;;;;;;4974797;28;20066;-65
2021/10/04 02:00:11;;;;;;;1.80;0.75;;;;;;;;;;4974170;28;20051;-66
2021/10/04 02:02:39;;;;;;;0.90;0.70;;;;;;;;;;4954901;28;20047;-66
2021/10/04 02:05:06;;;;;;;1.15;0.88;;;;;;;;;;4969515;28;20540;-65
2021/10/04 02:07:36;;;;;;;1.30;0.90;;;;;;;;;;4974352;28;20465;-65
2021/10/04 02:10:07;;;;;;;1.73;0.80;;;;;;;;;;4973981;28;20050;-66
2021/10/04 02:12:34;;;;;;;0.70;0.70;;;;;;;;;;4973954;28;20054;-66
2021/10/04 02:15:02;;;;;;;1.15;1.05;;;;;;;;;;4972153;28;20105;-66
2021/10/04 02:17:31;;;;;;;0.98;0.90;;;;;;;;;;4974014;28;20109;-66
2021/10/04 02:19:57;;;;;;;1.45;1.00;;;;;;;;;;4965307;28;20553;-66
2021/10/04 02:22:24;;;;;;;1.08;0.73;;;;;;;;;;4955881;28;20114;-66
2021/10/04 02:24:50;;;;;;;1.00;0.90;;;;;;;;;;4962187;28;20055;-67
2021/10/04 02:27:17;;;;;;;1.65;1.13;;;;;;;;;;4955254;28;20051;-67
2021/10/04 02:29:44;;;;;;;2.45;1.98;;;;;;;;;;4963478;28;20043;-66
2021/10/04 02:32:11;;;;;;;1.63;1.08;;;;;;;;;;4955276;28;20055;-66
2021/10/04 02:34:37;;;;;;;1.10;1.00;;;;;;;;;;4963753;28;20075;-67
2021/10/04 02:37:04;;;;;;;1.13;1.02;;;;;;;;;;4973428;28;20106;-65
2021/10/04 02:39:31;;;;;;;0.85;0.80;;;;;;;;;;4973624;28;20054;-66
2021/10/04 02:41:57;;;;;;;2.15;1.00;;;;;;;;;;4973431;28;20078;-66
2021/10/04 02:44:24;;;;;;;1.80;1.20;;;;;;;;;;4973564;28;20109;-65
2021/10/04 02:46:50;;;;;;;1.67;1.10;;;;;;;;;;4973564;28;20399;-66
2021/10/04 02:49:17;;;;;;;1.20;1.10;;;;;;;;;;4969946;28;20058;-66
2021/10/04 02:51:44;;;;;;;1.70;1.00;;;;;;;;;;4972367;28;20569;-67
2021/10/04 02:54:14;;;;;;;1.10;1.00;;;;;;;;;;4954023;29;20255;-67
2021/10/04 02:56:40;;;;;;;1.40;1.20;;;;;;;;;;4954196;29;20117;-67
2021/10/04 02:59:07;;;;;;;1.20;1.10;;;;;;;;;;4954035;29;20059;-67
2021/10/04 03:01:34;;;;;;;2.42;1.17;;;;;;;;;;4964802;28;20080;-67
2021/10/04 03:04:01;;;;;;;2.05;0.90;;;;;;;;;;4973051;28;20498;-67
2021/10/04 03:06:28;;;;;;;1.50;0.80;;;;;;;;;;4964342;28;20054;-66
2021/10/04 03:08:54;;;;;;;1.17;0.90;;;;;;;;;;4973195;28;20379;-67
2021/10/04 03:11:21;;;;;;;1.13;1.00;;;;;;;;;;4972606;28;20054;-67
2021/10/04 03:13:47;;;;;;;0.85;0.82;;;;;;;;;;4972976;28;20497;-67
2021/10/04 03:16:14;;;;;;;1.15;1.05;;;;;;;;;;4973071;28;20497;-67
2021/10/04 03:18:41;;;;;;;2.28;1.00;;;;;;;;;;4969597;28;20082;-65
2021/10/04 03:21:07;;;;;;;1.02;0.93;;;;;;;;;;4959310;28;20461;-66
2021/10/04 03:23:34;;;;;;;2.45;1.02;;;;;;;;;;4989302;23;20046;-65
2021/10/04 03:26:00;;;;;;;1.50;1.05;;;;;;;;;;4936903;29;20051;-65
2021/10/04 03:28:27;;;;;;;2.05;1.10;;;;;;;;;;4954256;28;20419;-65
2021/10/04 03:30:55;;;;;;;1.05;0.95;;;;;;;;;;4973224;28;20398;-66
2021/10/04 03:33:21;;;;;;;2.45;1.13;;;;;;;;;;4972818;28;20066;-65
2021/10/04 03:35:48;;;;;;;1.10;0.80;;;;;;;;;;4972799;28;20054;-63
2021/10/04 03:38:15;;;;;;;1.90;1.00;;;;;;;;;;4972921;28;20078;-63
2021/10/04 03:40:41;;;;;;;2.58;1.02;;;;;;;;;;4973166;28;20101;-63
2021/10/04 03:43:08;;;;;;;1.00;0.90;;;;;;;;;;4972390;28;20093;-63
2021/10/04 03:45:35;;;;;;;1.08;0.98;;;;;;;;;;4972795;28;20055;-63
2021/10/04 03:48:01;;;;;;;1.65;0.80;;;;;;;;;;4955669;28;20102;-63
2021/10/04 03:50:28;;;;;;;2.70;0.85;;;;;;;;;;4972436;28;20063;-63
2021/10/04 03:52:55;;;;;;;0.95;0.80;;;;;;;;;;4972467;28;20046;-63
2021/10/04 03:55:21;;;;;;;1.08;0.90;;;;;;;;;;4972642;28;20113;-63
2021/10/04 03:57:48;;;;;;;1.00;0.90;;;;;;;;;;4972782;28;20055;-63
2021/10/04 04:00:20;;;;;;;2.35;0.90;;;;;;;;;;4972603;28;20105;-63
2021/10/04 04:02:47;;;;;;;1.15;0.88;;;;;;;;;;4955576;28;20125;-63
2021/10/04 04:05:14;;;;;;;1.10;1.00;;;;;;;;;;4955286;28;20469;-63
2021/10/04 04:07:41;;;;;;;1.33;0.80;;;;;;;;;;4955408;28;20058;-63
2021/10/04 04:10:08;;;;;;;1.20;0.98;;;;;;;;;;4955368;28;20050;-63
2021/10/04 04:12:35;;;;;;;1.08;0.82;;;;;;;;;;4972360;28;20146;-63
2021/10/04 04:15:03;;;;;;;1.48;1.00;;;;;;;;;;4955272;28;20055;-63
2021/10/04 04:17:29;;;;;;;0.93;0.93;;;;;;;;;;4974060;28;20058;-63
2021/10/04 04:19:56;;;;;;;1.38;1.10;;;;;;;;;;4976352;28;20054;-63
2021/10/04 04:22:22;;;;;;;1.13;1.02;;;;;;;;;;4975776;28;20546;-63
2021/10/04 04:24:49;;;;;;;2.80;1.33;;;;;;;;;;4975809;28;20466;-63
2021/10/04 04:27:16;;;;;;;1.30;1.20;;;;;;;;;;4975376;28;20043;-63
2021/10/04 04:29:42;;;;;;;1.30;1.20;;;;;;;;;;4959822;28;20050;-63
2021/10/04 04:32:10;;;;;;;1.27;1.08;;;;;;;;;;4975836;28;20501;-63
2021/10/04 04:34:38;;;;;;;1.65;1.33;;;;;;;;;;4958603;28;20051;-63
2021/10/04 04:37:05;;;;;;;1.20;1.10;;;;;;;;;;4975835;28;20058;-63
2021/10/04 04:39:33;;;;;;;1.27;0.95;;;;;;;;;;4975883;28;20556;-62
2021/10/04 04:42:02;;;;;;;1.63;1.38;;;;;;;;;;4975741;28;20091;-63
2021/10/04 04:44:29;;;;;;;1.83;1.15;;;;;;;;;;4975128;28;20043;-63
2021/10/04 04:46:56;;;;;;;1.45;1.35;;;;;;;;;;4975836;28;20050;-63
2021/10/04 04:49:26;;;;;;;2.30;1.15;;;;;;;;;;4975715;28;20429;-63
2021/10/04 04:51:54;;;;;;;1.10;1.00;;;;;;;;;;4958576;28;20059;-63
2021/10/04 04:54:21;;;;;;;1.77;1.48;;;;;;;;;;4958005;28;20043;-63
2021/10/04 04:56:48;;;;;;;2.38;1.70;;;;;;;;;;4950074;28;20568;-63
2021/10/04 04:59:15;;;;;;;2.78;1.50;;;;;;;;;;4943558;29;20102;-63
2021/10/04 05:01:43;;;;;;;3.75;1.38;;;;;;;;;;4956051;29;20106;-62
2021/10/04 05:04:10;;;;;;;1.50;1.40;;;;;;;;;;4939251;29;20106;-64
2021/10/04 05:06:37;;;;;;;1.90;1.75;;;;;;;;;;4946730;28;20502;-65
2021/10/04 05:09:04;;;;;;;2.70;1.92;;;;;;;;;;4930980;28;20465;-65
2021/10/04 05:11:31;;;;;;;3.63;3.03;;;;;;;;;;4941576;29;20067;-65
2021/10/04 05:13:57;;;;;;;1.98;1.65;;;;;;;;;;4950456;28;20117;-65
2021/10/04 05:16:24;;;;;;;2.95;1.73;;;;;;;;;;4960907;28;20051;-65
2021/10/04 05:18:51;;;;;;;1.95;1.77;;;;;;;;;;4956228;29;20117;-64
2021/10/04 05:21:17;;;;;;;1.85;1.52;;;;;;;;;;4964251;28;20101;-65
2021/10/04 05:23:44;;;;;;;1.92;1.65;;;;;;;;;;4965812;28;20047;-65
2021/10/04 05:26:13;;;;;;;2.58;1.75;;;;;;;;;;4952759;28;20243;-65
2021/10/04 05:28:40;;;;;;;2.03;1.80;;;;;;;;;;4956840;28;20074;-65
2021/10/04 05:31:07;;;;;;;2.42;1.60;;;;;;;;;;4969093;28;20054;-65
2021/10/04 05:33:36;;;;;;;1.63;1.33;;;;;;;;;;4946628;28;20047;-65
2021/10/04 05:36:09;;;;;;;2.55;1.52;;;;;;;;;;4940235;28;20051;-65
2021/10/04 05:38:46;;;;;;;3.55;1.50;;;;;;;;;;4949689;29;20054;-64
2021/10/04 05:41:14;;;;;;;2.13;1.70;;;;;;;;;;4939059;29;20059;-64
2021/10/04 05:43:42;;;;;;;1.42;1.33;;;;;;;;;;4973481;28;20101;-64
2021/10/04 05:46:10;;;;;;;2.13;1.92;;;;;;;;;;4942674;28;20081;-64
2021/10/04 05:48:37;;;;;;;2.88;2.25;;;;;;;;;;4975012;28;20126;-64
2021/10/04 05:51:05;;;;;;;3.30;1.98;;;;;;;;;;4974738;28;20540;-64
2021/10/04 05:53:33;;;;;;;2.85;1.50;;;;;;;;;;4974439;28;20054;-64
2021/10/04 05:55:59;;;;;;;2.83;1.80;;;;;;;;;;4957457;28;20055;-64
2021/10/04 05:58:26;;;;;;;2.90;1.50;;;;;;;;;;4974574;28;20399;-64
2021/10/04 06:00:52;;;;;;;4.00;2.38;;;;;;;;;;4974020;28;20117;-63
2021/10/04 06:03:19;;;;;;;4.75;3.13;;;;;;;;;;4974140;28;20074;-63
2021/10/04 06:05:47;;;;;;;3.90;2.60;;;;;;;;;;4974249;28;20390;-63
2021/10/04 06:08:15;;;;;;;7.63;3.25;;;;;;;;;;4972161;28;20055;-64
2021/10/04 06:10:41;;;;;;;5.03;3.08;;;;;;;;;;4961879;28;20053;-64
2021/10/04 06:13:08;;;;;;;6.95;2.80;;;;;;;;;;4966735;28;20407;-64
2021/10/04 06:15:34;;;;;;;5.15;2.78;;;;;;;;;;4957555;28;20110;-64
2021/10/04 06:18:01;;;;;;;3.88;2.58;;;;;;;;;;4962328;28;20051;-64
2021/10/04 06:20:28;;;;;;;4.40;2.45;;;;;;;;;;4958449;28;20118;-64
2021/10/04 06:22:55;;;;;;;4.70;2.83;;;;;;;;;;4960000;28;20395;-64
2021/10/04 06:25:21;;;;;;;6.60;3.25;;;;;;;;;;4941555;28;20102;-64
2021/10/04 06:27:50;;;;;;;4.60;2.90;;;;;;;;;;4941142;28;20114;-65
2021/10/04 06:30:17;;;;;;;3.88;2.70;;;;;;;;;;4959432;28;20385;-65
2021/10/04 06:32:44;;;;;;;5.07;3.60;;;;;;;;;;4955945;28;20059;-64
2021/10/04 06:35:11;;;;;;;5.60;3.65;;;;;;;;;;4957831;28;20047;-64
2021/10/04 06:37:37;;;;;;;5.90;4.15;;;;;;;;;;4956019;28;20055;-65
2021/10/04 06:40:05;;;;;;;3.60;2.83;;;;;;;;;;4962506;28;20058;-65
2021/10/04 06:42:31;;;;;;;7.53;5.25;;;;;;;;;;4956047;28;20058;-65
2021/10/04 06:44:58;;;;;;;10.32;6.47;;;;;;;;;;4957588;28;20458;-65
2021/10/04 06:47:25;;;;;;;9.27;6.05;;;;;;;;;;4962205;28;20497;-65
2021/10/04 06:49:52;;;;;;;9.10;6.68;;;;;;;;;;4942662;28;20438;-65
2021/10/04 06:52:19;;;;;;;7.55;6.13;;;;;;;;;;4949295;28;20051;-65
2021/10/04 06:54:46;;;;;;;6.78;5.65;;;;;;;;;;4960489;28;20105;-65
2021/10/04 06:57:13;;;;;;;5.85;4.85;;;;;;;;;;4956706;28;20047;-65
2021/10/04 06:59:40;;;;;;;5.75;4.60;;;;;;;;;;4952751;28;20501;-65
2021/10/04 07:02:09;;;;;;;7.25;5.78;;;;;;;;;;4959868;28;20050;-64
2021/10/04 07:04:36;;;;;;;5.90;4.90;;;;;;;;;;4944274;28;20047;-64
2021/10/04 07:07:03;;;;;;;6.20;5.60;;;;;;;;;;4982505;28;20059;-64
2021/10/04 07:09:31;;;;;;;7.03;4.50;;;;;;;;;;4979993;28;21030;-64
2021/10/04 07:11:59;;;;;;;6.35;5.38;;;;;;;;;;4983698;28;20054;-64
2021/10/04 07:14:25;;;;;;;7.63;6.93;;;;;;;;;;4983562;28;20046;-65
2021/10/04 07:16:52;;;;;;;10.95;7.40;;;;;;;;;;4969057;28;20367;-65
2021/10/04 07:19:19;;;;;;;8.95;8.05;;;;;;;;;;4985175;28;20057;-64
2021/10/04 07:21:51;;;;;;;10.85;7.38;;;;;;;;;;4980092;28;20077;-65
2021/10/04 07:24:21;;;;;;;12.30;9.13;;;;;;;;;;4980639;28;20057;-67
2021/10/04 07:26:49;;;;;;;10.65;8.07;;;;;;;;;;4971941;28;20185;-65
2021/10/04 07:29:16;;;;;;;11.13;7.53;;;;;;;;;;4968927;28;20598;-65
2021/10/04 07:31:43;;;;;;;8.60;7.30;;;;;;;;;;4959678;28;20055;-65
2021/10/04 07:34:10;;;;;;;9.55;5.40;;;;;;;;;;4961038;28;20130;-71
2021/10/04 07:36:37;;;;;;;6.13;4.90;;;;;;;;;;4967596;28;20050;-69
2021/10/04 07:39:05;;;;;;;7.32;4.70;;;;;;;;;;4983147;28;20054;-70
2021/10/04 07:41:31;;;;;;;6.40;5.07;;;;;;;;;;4980192;28;20047;-66
2021/10/04 07:43:58;;;;;;;8.65;4.82;;;;;;;;;;4979589;28;20112;-66
2021/10/04 07:46:25;;;;;;;8.18;4.95;;;;;;;;;;4985669;28;20437;-66
2021/10/04 07:48:52;;;;;;;8.07;4.90;;;;;;;;;;4974842;28;20047;-67
2021/10/04 07:51:19;;;;;;;6.30;4.10;;;;;;;;;;4974666;28;20057;-67
2021/10/04 07:53:48;;;;;;;5.07;4.35;;;;;;;;;;4962561;28;20096;-67
2021/10/04 07:56:15;;;;;;;3.88;3.50;;;;;;;;;;4995922;28;20449;-67
2021/10/04 07:58:42;;;;;;;2.78;2.47;;;;;;;;;;4979160;28;20050;-67
2021/10/04 08:01:12;;;;;;;3.22;2.92;;;;;;;;;;4978586;28;20576;-67
2021/10/04 08:03:40;;;;;;;3.05;2.28;;;;;;;;;;4996016;28;20058;-66
2021/10/04 08:06:08;;;;;;;4.13;2.60;;;;;;;;;;4978423;28;20054;-66
2021/10/04 08:08:35;;;;;;;2.33;2.15;;;;;;;;;;4978675;28;20050;-66
2021/10/04 08:11:02;;;;;;;4.18;2.20;;;;;;;;;;4978594;28;20055;-66
2021/10/04 08:13:29;;;;;;;2.42;1.92;;;;;;;;;;4978273;28;20050;-67
2021/10/04 08:15:56;;;;;;;2.95;1.90;;;;;;;;;;4978277;28;20046;-67
2021/10/04 08:18:27;;;;;;;2.58;1.50;;;;;;;;;;4995733;28;20054;-66
2021/10/04 08:20:53;;;;;;;2.30;1.70;;;;;;;;;;4996068;28;20054;-67
2021/10/04 08:23:20;;;;;;;4.40;1.80;;;;;;;;;;4978056;28;20398;-67
2021/10/04 08:25:47;;;;;;;1.65;1.30;;;;;;;;;;4995378;28;20109;-67
2021/10/04 08:28:13;;;;;;;2.53;1.95;;;;;;;;;;4978057;28;20058;-67
2021/10/04 08:30:40;;;;;;;2.67;1.48;;;;;;;;;;4995492;28;20050;-67
2021/10/04 08:33:07;;;;;;;3.55;1.80;;;;;;;;;;4977818;28;20054;-67
2021/10/04 08:35:34;;;;;;;3.15;1.35;;;;;;;;;;4978236;28;20046;-67
2021/10/04 08:38:00;;;;;;;1.50;0.90;;;;;;;;;;4995540;28;20046;-67
2021/10/04 08:40:27;;;;;;;1.52;1.00;;;;;;;;;;4978039;28;20493;-66
2021/10/04 08:42:53;;;;;;;1.80;1.50;;;;;;;;;;4995097;28;20050;-67
2021/10/04 08:45:25;;;;;;;2.55;1.00;;;;;;;;;;4977906;28;20402;-67
2021/10/04 08:47:58;;;;;;;2.97;1.30;;;;;;;;;;4962101;28;20050;-66
2021/10/04 08:50:28;;;;;;;;;;;;;;;;;;4979120;28;20055;-66
2021/10/04 08:52:55;;;;;;;3.35;1.33;;;;;;;;;;4994877;28;19957;-66
2021/10/04 08:55:22;;;;;;;0.90;0.90;;;;;;;;;;4977822;28;20406;-66
2021/10/04 08:57:48;;;;;;;3.53;1.02;;;;;;;;;;4976117;28;20051;-66
2021/10/04 09:00:16;;;;;;;2.25;1.50;;;;;;;;;;4975308;28;20168;-66
2021/10/04 09:02:43;;;;;;;2.75;1.10;;;;;;;;;;4958203;28;20402;-66
2021/10/04 09:05:13;;;;;;;2.28;1.20;;;;;;;;;;4941565;28;20117;-66
2021/10/04 09:07:41;;;;;;;1.30;1.20;;;;;;;;;;4959795;28;20050;-66
2021/10/04 09:10:09;;;;;;;3.22;1.70;;;;;;;;;;4975282;28;20497;-66
2021/10/04 09:12:50;;;;;;;2.58;1.80;;;;;;;;;;4958180;28;20441;-66
2021/10/04 09:15:42;;;;;;;2.97;1.70;;;;;;;;;;4943212;28;20105;-66
2021/10/04 09:18:15;;;;;;;2.70;1.10;;;;;;;;;;4975188;28;20113;-66
2021/10/04 09:20:58;;;;;;;1.80;1.48;;;;;;;;;;4975288;28;20055;-66
2021/10/04 09:25:52;;;;;;;1.38;1.08;;;;;;;;;;5011192;28;20333;-64
2021/10/04 09:28:32;;;;;;;4.10;1.17;;;;;;;;;;4996646;28;20108;-65
2021/10/04 09:31:22;;;;;;;1.65;1.10;;;;;;;;;;5013726;28;20045;-65
2021/10/04 09:34:01;;;;;;;1.10;0.55;;;;;;;;;;5013765;28;20054;-65
2021/10/04 09:36:45;;;;;;;0.82;0.73;;;;;;;;;;5006772;28;20104;-64
2021/10/04 09:39:16;;;;;;;1.88;0.98;;;;;;;;;;4994178;28;20050;-65
2021/10/04 09:42:00;;;;;;;1.88;0.70;;;;;;;;;;4994119;28;20065;-65
2021/10/04 09:44:46;;;;;;;1.63;0.90;;;;;;;;;;4993954;28;20058;-65
2021/10/04 09:47:18;;;;;;;2.45;0.90;;;;;;;;;;4996648;28;20057;-65
2021/10/04 09:50:00;;;;;;;1.30;1.10;;;;;;;;;;4994110;28;20089;-64
2021/10/04 09:52:45;;;;;;;2.85;1.10;;;;;;;;;;4993973;28;20058;-65
2021/10/04 09:55:32;;;;;;;1.60;0.80;;;;;;;;;;4993762;28;20050;-65
2021/10/04 09:58:10;;;;;;;1.35;0.80;;;;;;;;;;5011360;28;20115;-64
2021/10/04 10:00:58;;;;;;;1.83;0.80;;;;;;;;;;5013296;28;20079;-65
2021/10/04 10:03:28;;;;;;;1.23;0.90;;;;;;;;;;5013034;28;20053;-65
2021/10/04 10:05:57;;;;;;;0.90;0.80;;;;;;;;;;5011038;28;20050;-65
2021/10/04 10:08:26;;;;;;;1.30;1.20;;;;;;;;;;4993705;28;20054;-66
2021/10/04 10:10:55;;;;;;;1.17;1.02;;;;;;;;;;4993507;28;20050;-65
2021/10/04 10:13:23;;;;;;;1.48;0.90;;;;;;;;;;4993333;28;20509;-65
2021/10/04 10:16:09;;;;;;;2.67;0.88;;;;;;;;;;4993565;28;20424;-64
2021/10/04 10:18:53;;;;;;;1.25;0.75;;;;;;;;;;5000438;28;20472;-63
2021/10/04 10:21:24;;;;;;;1.58;0.55;;;;;;;;;;4989499;28;20402;-65
2021/10/04 10:24:04;;;;;;;2.55;0.80;;;;;;;;;;4982765;28;20050;-65
2021/10/04 10:26:37;;;;;;;0.63;0.50;;;;;;;;;;4979931;28;20460;-65
2021/10/04 10:29:09;;;;;;;;;;;;;;;;;;4979085;28;20047;-64
2021/10/04 10:31:48;;;;;;;1.55;0.70;;;;;;;;;;4981599;28;19925;-65
2021/10/04 10:34:30;;;;;;;0.63;0.52;;;;;;;;;;4980529;28;20398;-65
2021/10/04 10:37:17;;;;;;;0.50;0.50;;;;;;;;;;4978980;28;20059;-65
2021/10/04 10:39:45;;;;;;;0.60;0.60;;;;;;;;;;4978940;28;20051;-65
2021/10/04 10:42:12;;;;;;;2.10;0.52;;;;;;;;;;4979775;28;20054;-65
2021/10/04 10:44:54;;;;;;;1.20;0.60;;;;;;;;;;4982731;28;20045;-65
2021/10/04 10:47:33;;;;;;;1.00;0.50;;;;;;;;;;4981567;28;20055;-64
2021/10/04 10:49:59;;;;;;;2.33;0.60;;;;;;;;;;4987037;28;20053;-65
2021/10/04 10:52:29;;;;;;;0.77;0.70;;;;;;;;;;4978028;28;20051;-65
2021/10/04 10:54:59;;;;;;;0.60;0.60;;;;;;;;;;4984936;28;20096;-64
2021/10/04 10:57:51;;;;;;;0.80;0.63;;;;;;;;;;4979342;28;20046;-65
2021/10/04 11:00:22;;;;;;;1.52;0.93;;;;;;;;;;4978917;28;20112;-65
2021/10/04 11:02:59;;;;;;;1.10;0.90;;;;;;;;;;4978073;28;20425;-65
2021/10/04 11:05:38;;;;;;;1.23;1.13;;;;;;;;;;4983535;28;20454;-65
2021/10/04 11:08:09;;;;;;;0.90;0.80;;;;;;;;;;4985635;28;20078;-65
2021/10/04 11:10:56;;;;;;;1.58;1.00;;;;;;;;;;4978094;28;20046;-65
2021/10/04 11:13:35;;;;;;;0.80;0.80;;;;;;;;;;4981015;28;20046;-65
2021/10/04 11:16:04;;;;;;;2.90;0.90;;;;;;;;;;4980941;28;20050;-73
2021/10/04 11:18:45;;;;;;;0.73;0.73;;;;;;;;;;4984556;28;20046;-70
2021/10/04 11:21:15;;;;;;;1.58;1.42;;;;;;;;;;4983350;28;20501;-76
2021/10/04 11:23:44;;;;;;;0.80;0.80;;;;;;;;;;4971119;28;20460;-74
2021/10/04 11:26:14;;;;;;;1.63;0.80;;;;;;;;;;4979723;28;20057;-72
2021/10/04 11:28:48;;;;;;;1.52;0.90;;;;;;;;;;4972577;28;20552;-74
2021/10/04 11:31:19;;;;;;;3.40;1.25;;;;;;;;;;4971836;28;20054;-77
2021/10/04 11:33:50;;;;;;;1.80;0.75;;;;;;;;;;4971121;28;20054;-74
2021/10/04 11:36:37;;;;;;;0.57;0.50;;;;;;;;;;4984992;28;20054;-74
2021/10/04 11:39:14;;;;;;;0.75;0.70;;;;;;;;;;4983094;28;20050;-72
2021/10/04 11:41:50;;;;;;;0.60;0.60;;;;;;;;;;4981779;28;20053;-74
2021/10/04 11:44:22;;;;;;;0.98;0.70;;;;;;;;;;4985321;28;20047;-75
2021/10/04 11:46:51;;;;;;;;;;;;;;;;;;4964523;28;20105;-74
2021/10/04 11:49:19;;;;;;;1.88;0.68;;;;;;;;;;4960252;28;19930;-74
2021/10/04 11:51:50;;;;;;;1.35;0.80;;;;;;;;;;4982471;28;20047;-74
2021/10/04 11:54:32;;;;;;;2.10;1.08;;;;;;;;;;4974112;28;20057;-73
2021/10/04 11:57:03;;;;;;;1.90;0.93;;;;;;;;;;4963694;28;20082;-73
2021/10/04 11:59:30;;;;;;;1.08;0.82;;;;;;;;;;4979414;28;20058;-77
2021/10/04 12:01:58;;;;;;;1.00;0.70;;;;;;;;;;4983255;28;20050;-77
2021/10/04 12:04:25;;;;;;;2.83;0.98;;;;;;;;;;4959047;28;20085;-77
2021/10/04 12:06:51;;;;;;;2.28;1.00;;;;;;;;;;4979476;28;20051;-75
2021/10/04 12:09:23;;;;;;;2.58;1.08;;;;;;;;;;4972873;28;20052;-69
2021/10/04 12:11:52;;;;;;;2.25;1.00;;;;;;;;;;4972822;28;20054;-72
2021/10/04 12:14:21;;;;;;;1.35;0.90;;;;;;;;;;4988057;28;20055;-72
2021/10/04 12:16:50;;;;;;;2.15;0.70;;;;;;;;;;4979768;28;20472;-74
2021/10/04 12:19:17;;;;;;;0.43;0.40;;;;;;;;;;4973293;28;20521;-74
2021/10/04 12:21:47;;;;;;;0.60;0.52;;;;;;;;;;4968880;28;20047;-76
2021/10/04 12:24:20;;;;;;;0.73;0.70;;;;;;;;;;4979358;28;20509;-75
2021/10/04 12:27:12;;;;;;;0.57;0.40;;;;;;;;;;4964755;28;20526;-75
2021/10/04 12:29:44;;;;;;;2.78;0.60;;;;;;;;;;4979042;28;20050;-70
2021/10/04 12:32:37;;;;;;;0.43;0.43;;;;;;;;;;4981148;28;20059;-71
2021/10/04 12:35:07;;;;;;;0.88;0.50;;;;;;;;;;4977956;28;20061;-71
2021/10/04 12:37:38;;;;;;;0.85;0.60;;;;;;;;;;4982597;28;20046;-70
2021/10/04 12:40:23;;;;;;;0.55;0.55;;;;;;;;;;4982303;28;20089;-70
2021/10/04 12:42:51;;;;;;;0.80;0.50;;;;;;;;;;4991795;28;20548;-74
2021/10/04 12:45:18;;;;;;;0.45;0.45;;;;;;;;;;4981100;28;20498;-73
2021/10/04 12:47:58;;;;;;;1.85;0.60;;;;;;;;;;4964704;28;20051;-73
2021/10/04 12:50:28;;;;;;;1.40;0.50;;;;;;;;;;4963560;28;20069;-74
2021/10/04 12:53:29;;;;;;;1.30;0.40;;;;;;;;;;4987038;28;20093;-78
2021/10/04 12:56:02;;;;;;;0.73;0.50;;;;;;;;;;4969121;28;20051;-72
2021/10/04 12:58:30;;;;;;;0.43;0.40;;;;;;;;;;4984566;28;20514;-73
2021/10/04 13:01:13;;;;;;;1.65;0.60;;;;;;;;;;4984029;28;20082;-76
2021/10/04 13:03:58;;;;;;;0.40;0.40;;;;;;;;;;4984857;28;20046;-75
2021/10/04 13:06:35;;;;;;;0.35;0.35;;;;;;;;;;4966938;28;20077;-78
2021/10/04 13:09:24;;;;;;;0.50;0.40;;;;;;;;;;4974303;28;20085;-76
2021/10/04 13:11:52;;;;;;;0.90;0.60;;;;;;;;;;4985617;28;20072;-75
2021/10/04 13:14:20;;;;;;;0.57;0.40;;;;;;;;;;4969069;28;20042;-67
2021/10/04 13:16:48;;;;;;;0.30;0.30;;;;;;;;;;4982675;28;20109;-76
2021/10/04 13:19:16;;;;;;;0.40;0.40;;;;;;;;;;4983053;28;20051;-73
2021/10/04 13:21:45;;;;;;;0.60;0.40;;;;;;;;;;4988570;28;20390;-75
2021/10/04 13:24:13;;;;;;;0.60;0.50;;;;;;;;;;4938625;28;20142;-74
2021/10/04 13:26:41;;;;;;;1.40;0.47;;;;;;;;;;4986600;28;20046;-73
2021/10/04 13:29:08;;;;;;;0.63;0.40;;;;;;;;;;4987542;28;20054;-75
2021/10/04 13:31:36;;;;;;;0.50;0.50;;;;;;;;;;4983991;28;20070;-69
2021/10/04 13:34:03;;;;;;;0.40;0.32;;;;;;;;;;4981598;28;20047;-68
2021/10/04 13:36:31;;;;;;;0.90;0.40;;;;;;;;;;4980817;28;20096;-70
2021/10/04 13:38:58;;;;;;;0.50;0.40;;;;;;;;;;4984080;28;20560;-74
2021/10/04 13:41:28;;;;;;;2.65;0.55;;;;;;;;;;4968608;28;20505;-68
2021/10/04 13:43:55;;;;;;;1.45;0.60;;;;;;;;;;4981859;28;20066;-68
2021/10/04 13:46:22;;;;;;;0.77;0.68;;;;;;;;;;4979003;28;20050;-68
2021/10/04 13:48:49;;;;;;;0.98;0.80;;;;;;;;;;4982064;28;20494;-68
2021/10/04 13:51:16;;;;;;;2.28;0.80;;;;;;;;;;4983359;28;20568;-69
2021/10/04 13:53:48;;;;;;;1.80;0.50;;;;;;;;;;4978768;28;20053;-72
2021/10/04 13:56:16;;;;;;;0.68;0.52;;;;;;;;;;4982435;28;20101;-70
2021/10/04 13:58:43;;;;;;;1.65;0.60;;;;;;;;;;4980584;28;20042;-75
2021/10/04 14:01:10;;;;;;;0.75;0.63;;;;;;;;;;4973687;28;20059;-72
2021/10/04 14:03:37;;;;;;;1.85;0.70;;;;;;;;;;4979650;28;20054;-73
2021/10/04 14:06:04;;;;;;;0.63;0.57;;;;;;;;;;4980649;28;20101;-70
2021/10/04 14:08:31;;;;;;;1.02;0.65;;;;;;;;;;4981649;28;20457;-70
2021/10/04 14:10:58;;;;;;;1.60;0.80;;;;;;;;;;4983619;28;20046;-69
2021/10/04 14:13:25;;;;;;;1.20;0.55;;;;;;;;;;4984120;28;20063;-70
2021/10/04 14:15:54;;;;;;;0.65;0.50;;;;;;;;;;4984668;28;20051;-70
2021/10/04 14:18:21;;;;;;;0.80;0.70;;;;;;;;;;4978729;28;20134;-70
2021/10/04 14:20:51;;;;;;;0.30;0.30;;;;;;;;;;4983344;28;20105;-66
2021/10/04 14:23:18;;;;;;;1.95;0.60;;;;;;;;;;4994496;28;20046;-67
2021/10/04 14:25:45;;;;;;;3.08;0.80;;;;;;;;;;4987019;28;20050;-67
2021/10/04 14:28:12;;;;;;;2.63;0.90;;;;;;;;;;4983370;28;20050;-66
2021/10/04 14:30:39;;;;;;;1.38;0.60;;;;;;;;;;4986403;28;20046;-65
2021/10/04 14:33:09;;;;;;;1.15;0.60;;;;;;;;;;4978545;28;20043;-66
2021/10/04 14:35:35;;;;;;;0.60;0.52;;;;;;;;;;4990669;28;20057;-66
2021/10/04 14:38:02;;;;;;;0.80;0.50;;;;;;;;;;4980682;28;20367;-67
2021/10/04 14:40:30;;;;;;;0.60;0.60;;;;;;;;;;4982066;28;20130;-66
2021/10/04 14:42:56;;;;;;;0.40;0.40;;;;;;;;;;4983004;28;20054;-66
2021/10/04 14:45:23;;;;;;;1.15;0.70;;;;;;;;;;4977974;28;20110;-66
2021/10/04 14:47:49;;;;;;;0.50;0.40;;;;;;;;;;4972321;28;20462;-66
2021/10/04 14:50:17;;;;;;;1.85;0.50;;;;;;;;;;4993134;28;20050;-66
2021/10/04 14:52:44;;;;;;;0.70;0.70;;;;;;;;;;4986847;28;20082;-67
2021/10/04 14:55:11;;;;;;;0.63;0.50;;;;;;;;;;4978038;28;20457;-66
2021/10/04 14:57:39;;;;;;;1.67;0.55;;;;;;;;;;4982704;28;20053;-65